Mambore, Brazil
Current Conditions -  °F | °C
As of 7:00 PM on Thursday 18 Dec 2014 (Local Time) from SBMG Reporting Station
Scattered Clouds Scattered Clouds  
Wind Chill: 84°   Ceiling: Unl
Heat Index: 86°   Visibility: 6mi
Dew Point: 66°   Wind: 5mph
Humidity: 55%   Direction: 180°S
Pressure: 29.77"   Gusts: NA
Location:  24.32°S, 52.53°W
Report Text: SBMG 182100Z 18004KT 9999 FEW035 SCT090 29/19 Q1008
Loading
Personal Weather Stations






























Interactive Weather Map New forecast layout! Learn more

10-Day Weather Forecast

Advertisements
Track Severe Weather on mobile